createdAt,value
2018-01-23T00:00:56.647Z,13.50
2018-01-23T00:01:56.631Z,13.40
2018-01-23T00:02:56.616Z,12.90
2018-01-23T00:03:56.614Z,12.60
2018-01-23T00:04:56.582Z,13.90
2018-01-23T00:05:56.583Z,13.00
2018-01-23T00:06:56.554Z,12.80
2018-01-23T00:07:56.539Z,14.10
2018-01-23T00:08:56.536Z,13.80
2018-01-23T00:09:56.504Z,13.10
2018-01-23T00:10:56.501Z,13.60
2018-01-23T00:11:56.473Z,14.00
2018-01-23T00:12:56.458Z,13.50
2018-01-23T00:13:56.440Z,13.60
2018-01-23T00:14:56.423Z,14.00
2018-01-23T00:15:56.424Z,13.90
2018-01-23T00:16:56.390Z,13.20
2018-01-23T00:17:56.378Z,14.20
2018-01-23T00:18:56.359Z,14.00
2018-01-23T00:19:56.345Z,15.00
2018-01-23T00:20:56.328Z,14.70
2018-01-23T00:21:56.328Z,13.80
2018-01-23T00:22:56.295Z,14.20
2018-01-23T00:23:56.279Z,13.30
2018-01-23T00:24:56.263Z,14.00
2018-01-23T00:25:56.260Z,14.50
2018-01-23T00:26:56.232Z,14.60
2018-01-23T00:27:56.211Z,14.50
2018-01-23T00:28:56.198Z,14.50
2018-01-23T00:29:56.179Z,14.60
2018-01-23T00:30:56.165Z,15.30
2018-01-23T00:31:56.166Z,14.10
2018-01-23T00:32:56.134Z,14.10
2018-01-23T00:33:56.116Z,14.80
2018-01-23T00:34:56.103Z,15.10
2018-01-23T00:35:56.089Z,14.80
2018-01-23T00:36:56.087Z,14.80
2018-01-23T00:37:56.058Z,15.00
2018-01-23T00:38:56.040Z,15.50
2018-01-23T00:39:56.024Z,15.90
2018-01-23T00:40:56.015Z,14.90
2018-01-23T00:41:55.994Z,15.90
2018-01-23T00:42:55.993Z,16.20
2018-01-23T00:43:55.959Z,16.30
2018-01-23T00:44:55.943Z,17.50
2018-01-23T00:45:55.927Z,18.00
2018-01-23T00:46:55.905Z,17.20
2018-01-23T00:47:55.896Z,17.40
2018-01-23T00:48:55.895Z,17.40
2018-01-23T00:49:55.880Z,16.70
2018-01-23T00:50:55.848Z,17.10
2018-01-23T00:51:55.832Z,17.50
2018-01-23T00:52:55.838Z,17.80
2018-01-23T00:53:55.798Z,18.10
2018-01-23T00:54:55.800Z,17.70
2018-01-23T00:55:55.766Z,17.40
2018-01-23T00:56:55.752Z,17.30
2018-01-23T00:57:55.734Z,17.60
2018-01-23T00:58:55.720Z,17.00
2018-01-23T00:59:55.704Z,15.90
2018-01-23T01:00:55.696Z,16.30
2018-01-23T01:01:55.668Z,16.70
2018-01-23T01:02:55.653Z,16.10
2018-01-23T01:03:55.637Z,15.80
2018-01-23T01:04:55.625Z,16.40
2018-01-23T01:05:55.618Z,16.00
2018-01-23T01:06:55.589Z,15.40
2018-01-23T01:07:55.573Z,15.70
2018-01-23T01:08:55.557Z,16.00
2018-01-23T01:09:55.541Z,15.40
2018-01-23T01:10:55.541Z,16.00
2018-01-23T01:11:55.522Z,15.90
2018-01-23T01:12:55.493Z,15.80
2018-01-23T01:13:55.498Z,15.40
2018-01-23T01:14:55.465Z,16.50
2018-01-23T01:15:55.445Z,16.10
2018-01-23T01:16:55.425Z,17.30
2018-01-23T01:17:55.425Z,16.90
2018-01-23T01:18:55.396Z,17.40
2018-01-23T01:19:55.376Z,16.50
2018-01-23T01:20:55.364Z,16.70
2018-01-23T01:21:55.365Z,16.60
2018-01-23T01:22:55.332Z,16.40
2018-01-23T01:23:55.317Z,17.10
2018-01-23T01:24:55.300Z,17.20
2018-01-23T01:25:55.283Z,16.40
2018-01-23T01:26:55.285Z,16.90
2018-01-23T01:27:55.254Z,15.90
2018-01-23T01:28:55.236Z,16.70
2018-01-23T01:29:55.232Z,16.50
2018-01-23T01:30:55.205Z,16.60
2018-01-23T01:31:55.210Z,17.50
2018-01-23T01:32:55.174Z,17.60
2018-01-23T01:33:55.156Z,16.60
2018-01-23T01:34:55.150Z,16.20
2018-01-23T01:35:55.126Z,16.80
2018-01-23T01:36:55.107Z,16.70
2018-01-23T01:37:55.107Z,17.40
2018-01-23T01:38:55.092Z,17.70
2018-01-23T01:39:55.059Z,16.40
2018-01-23T01:40:55.040Z,18.00
2018-01-23T01:41:55.031Z,17.00
2018-01-23T01:42:55.012Z,17.40
2018-01-23T01:43:54.997Z,17.30
2018-01-23T01:44:54.998Z,19.00
2018-01-23T01:45:54.965Z,17.10
2018-01-23T01:46:54.944Z,16.50
2018-01-23T01:47:54.933Z,17.80
2018-01-23T01:48:54.913Z,18.80
2018-01-23T01:49:54.897Z,18.30
2018-01-23T01:50:54.893Z,17.70
2018-01-23T01:51:54.867Z,17.90
2018-01-23T01:52:54.849Z,18.10
2018-01-23T01:53:54.835Z,17.70
2018-01-23T01:54:54.833Z,17.60
2018-01-23T01:55:54.802Z,18.40
2018-01-23T01:56:54.784Z,18.20
2018-01-23T01:57:54.770Z,17.80
2018-01-23T01:58:54.754Z,17.40
2018-01-23T01:59:54.796Z,17.40
2018-01-23T02:00:54.723Z,16.00
2018-01-23T02:01:54.722Z,16.80
2018-01-23T02:02:54.690Z,16.30
2018-01-23T02:03:54.675Z,16.90
2018-01-23T02:04:54.675Z,16.40
2018-01-23T02:05:54.638Z,17.10
2018-01-23T02:06:54.625Z,17.20
2018-01-23T02:07:54.608Z,16.50
2018-01-23T02:08:54.591Z,16.60
2018-01-23T02:09:54.575Z,15.70
2018-01-23T02:10:54.575Z,16.90
2018-01-23T02:11:54.545Z,17.30
2018-01-23T02:12:54.526Z,17.90
2018-01-23T02:13:54.508Z,18.00
2018-01-23T02:14:54.494Z,18.00
2018-01-23T02:15:54.476Z,16.50
2018-01-23T02:16:54.478Z,17.10
2018-01-23T02:17:54.460Z,16.10
2018-01-23T02:18:54.447Z,16.10
2018-01-23T02:19:54.414Z,15.70
2018-01-23T02:20:54.394Z,16.10
2018-01-23T02:21:54.396Z,15.40
2018-01-23T02:22:54.367Z,15.40
2018-01-23T02:23:54.363Z,16.20
2018-01-23T02:24:54.335Z,15.40
2018-01-23T02:25:54.319Z,15.60
2018-01-23T02:26:54.302Z,14.90
2018-01-23T02:27:54.286Z,15.80
2018-01-23T02:28:54.286Z,15.50
2018-01-23T02:29:54.266Z,15.70
2018-01-23T02:30:54.238Z,15.20
2018-01-23T02:31:54.240Z,15.80
2018-01-23T02:32:54.204Z,15.50
2018-01-23T02:33:54.200Z,15.10
2018-01-23T02:34:54.185Z,14.90
2018-01-23T02:35:54.157Z,14.80
2018-01-23T02:36:54.162Z,15.70
2018-01-23T02:37:54.127Z,15.80
2018-01-23T02:38:54.124Z,15.00
2018-01-23T02:39:54.088Z,15.10
2018-01-23T02:40:54.075Z,14.70
2018-01-23T02:41:54.060Z,15.30
2018-01-23T02:42:54.046Z,15.20
2018-01-23T02:43:54.027Z,14.30
2018-01-23T02:44:54.028Z,15.00
2018-01-23T02:45:53.994Z,15.40
2018-01-23T02:46:53.978Z,14.60
2018-01-23T02:47:53.978Z,14.80
2018-01-23T02:48:53.963Z,14.20
2018-01-23T02:49:53.932Z,15.50
2018-01-23T02:50:53.921Z,14.40
2018-01-23T02:51:53.900Z,15.20
2018-01-23T02:52:53.880Z,14.70
2018-01-23T02:53:53.884Z,14.30
2018-01-23T02:54:53.868Z,14.50
2018-01-23T02:55:53.834Z,14.30
2018-01-23T02:56:53.820Z,14.00
2018-01-23T02:57:53.801Z,13.90
2018-01-23T02:58:53.797Z,14.00
2018-01-23T02:59:53.767Z,14.30
2018-01-23T03:00:53.753Z,13.40
2018-01-23T03:01:53.737Z,14.00
2018-01-23T03:02:53.726Z,15.00
2018-01-23T03:03:53.706Z,14.00
2018-01-23T03:04:53.702Z,13.00
2018-01-23T03:05:53.673Z,13.10
2018-01-23T03:06:53.658Z,13.20
2018-01-23T03:07:53.642Z,13.20
2018-01-23T03:08:53.623Z,13.70
2018-01-23T03:09:53.625Z,13.80
2018-01-23T03:10:53.590Z,13.60
2018-01-23T03:11:53.576Z,14.00
2018-01-23T03:12:53.558Z,13.90
2018-01-23T03:13:53.546Z,13.90
2018-01-23T03:14:53.544Z,14.40
2018-01-23T03:15:53.514Z,14.50
2018-01-23T03:16:53.498Z,14.10
2018-01-23T03:17:53.480Z,13.60
2018-01-23T03:18:53.461Z,14.20
2018-01-23T03:19:53.446Z,14.10
2018-01-23T03:20:53.446Z,14.20
2018-01-23T03:21:53.414Z,14.70
2018-01-23T03:22:53.398Z,14.10
2018-01-23T03:23:53.381Z,13.80
2018-01-23T03:24:53.364Z,14.00
2018-01-23T03:25:53.352Z,13.90
2018-01-23T03:26:53.347Z,14.40
2018-01-23T03:27:53.317Z,14.20
2018-01-23T03:28:53.301Z,14.10
2018-01-23T03:29:53.281Z,14.00
2018-01-23T03:30:53.269Z,13.70
2018-01-23T03:31:53.272Z,14.50
2018-01-23T03:32:53.237Z,13.40
2018-01-23T03:33:53.219Z,13.30
2018-01-23T03:34:53.202Z,13.80
2018-01-23T03:35:53.189Z,14.50
2018-01-23T03:36:53.187Z,14.30
2018-01-23T03:37:53.157Z,14.60
2018-01-23T03:38:53.139Z,13.50
2018-01-23T03:39:53.122Z,13.60
2018-01-23T03:40:53.107Z,14.30
2018-01-23T03:41:53.106Z,14.90
2018-01-23T03:42:53.073Z,15.00
2018-01-23T03:43:53.063Z,15.00
2018-01-23T03:44:53.042Z,13.90
2018-01-23T03:45:53.026Z,14.30
2018-01-23T03:46:53.008Z,14.50
2018-01-23T03:47:53.007Z,13.80
2018-01-23T03:48:52.977Z,13.10
2018-01-23T03:49:52.960Z,14.10
2018-01-23T03:50:52.944Z,13.60
2018-01-23T03:51:52.928Z,13.90
2018-01-23T03:52:52.926Z,14.20
2018-01-23T03:53:52.896Z,13.50
2018-01-23T03:54:52.881Z,14.50
2018-01-23T03:55:52.865Z,13.60
2018-01-23T03:56:52.847Z,14.00
2018-01-23T03:57:52.829Z,13.70
2018-01-23T03:58:52.831Z,13.20
2018-01-23T03:59:52.845Z,13.30
2018-01-23T04:00:52.783Z,13.80
2018-01-23T04:01:52.764Z,13.40
2018-01-23T04:02:52.748Z,13.10
2018-01-23T04:03:52.731Z,13.20
2018-01-23T04:04:52.736Z,12.70
2018-01-23T04:05:52.696Z,12.90
2018-01-23T04:06:52.682Z,12.60
2018-01-23T04:07:52.666Z,13.00
2018-01-23T04:08:52.652Z,14.10
2018-01-23T04:09:52.638Z,13.40
2018-01-23T04:10:52.636Z,13.10
2018-01-23T04:11:52.603Z,13.30
2018-01-23T04:12:52.587Z,12.70
2018-01-23T04:13:52.566Z,13.30
2018-01-23T04:14:52.554Z,14.00
2018-01-23T04:15:52.537Z,13.40
2018-01-23T04:17:13.530Z,13.60
2018-01-23T04:17:52.503Z,12.70
2018-01-23T04:18:52.487Z,12.70
2018-01-23T04:19:52.473Z,11.70
2018-01-23T04:20:52.455Z,12.00
2018-01-23T04:21:52.452Z,11.60
2018-01-23T04:22:52.438Z,11.60
2018-01-23T04:23:52.404Z,11.70
2018-01-23T04:24:52.388Z,11.70
2018-01-23T04:25:52.374Z,11.90
2018-01-23T04:26:52.358Z,11.80
2018-01-23T04:27:52.340Z,11.30
2018-01-23T04:28:52.338Z,11.60
2018-01-23T04:29:52.314Z,11.70
2018-01-23T04:30:52.290Z,12.30
2018-01-23T04:31:52.277Z,11.90
2018-01-23T04:32:52.292Z,12.30
2018-01-23T04:33:52.238Z,11.70
2018-01-23T04:34:52.223Z,12.20
2018-01-23T04:35:52.210Z,12.20
2018-01-23T04:36:52.193Z,11.80
2018-01-23T04:37:52.177Z,12.00
2018-01-23T04:38:52.175Z,11.80
2018-01-23T04:39:52.160Z,11.30
2018-01-23T04:40:52.135Z,12.00
2018-01-23T04:41:52.110Z,11.80
2018-01-23T04:42:52.098Z,11.60
2018-01-23T04:43:52.094Z,11.80
2018-01-23T04:44:52.081Z,11.50
2018-01-23T04:45:52.050Z,11.60
2018-01-23T04:46:52.030Z,11.00
2018-01-23T04:47:52.012Z,11.00
2018-01-23T04:48:51.999Z,11.10
2018-01-23T04:49:51.992Z,10.60
2018-01-23T04:50:51.960Z,11.20
2018-01-23T04:51:51.972Z,11.60
2018-01-23T04:52:51.928Z,11.40
2018-01-23T04:53:51.911Z,11.30
2018-01-23T04:54:51.913Z,10.10
2018-01-23T04:55:51.893Z,10.60
2018-01-23T04:56:51.860Z,11.40
2018-01-23T04:57:51.846Z,11.30
2018-01-23T04:58:51.846Z,11.40
2018-01-23T04:59:51.814Z,10.50
2018-01-23T05:00:51.812Z,10.60
2018-01-23T05:01:51.780Z,10.50
2018-01-23T05:02:51.766Z,10.70
2018-01-23T05:03:51.752Z,10.50
2018-01-23T05:04:51.731Z,10.30
2018-01-23T05:05:51.730Z,10.00
2018-01-23T05:06:51.713Z,9.70
2018-01-23T05:07:51.684Z,9.80
2018-01-23T05:08:51.665Z,10.60
2018-01-23T05:09:51.650Z,9.40
2018-01-23T05:10:51.632Z,9.50
2018-01-23T05:11:51.630Z,9.70
2018-01-23T05:12:51.600Z,9.80
2018-01-23T05:13:51.585Z,9.70
2018-01-23T05:14:51.567Z,9.50
2018-01-23T05:15:51.565Z,9.60
2018-01-23T05:16:51.533Z,9.20
2018-01-23T05:17:51.517Z,10.20
2018-01-23T05:18:51.516Z,10.00
2018-01-23T05:19:51.485Z,9.30
2018-01-23T05:20:51.480Z,10.80
2018-01-23T05:21:51.455Z,10.20
2018-01-23T05:22:51.432Z,10.00
2018-01-23T05:23:51.420Z,9.30
2018-01-23T05:24:51.401Z,9.70
2018-01-23T05:25:51.400Z,9.40
2018-01-23T05:26:51.368Z,9.10
2018-01-23T05:27:51.353Z,9.20
2018-01-23T05:28:51.335Z,8.90
2018-01-23T05:29:51.318Z,9.40
2018-01-23T05:30:51.321Z,9.50
2018-01-23T05:31:51.285Z,9.30
2018-01-23T05:32:51.269Z,9.20
2018-01-23T05:33:51.255Z,9.50
2018-01-23T05:34:51.240Z,9.40
2018-01-23T05:35:51.217Z,9.90
2018-01-23T05:36:51.216Z,9.60
2018-01-23T05:37:51.207Z,9.20
2018-01-23T05:38:51.177Z,9.80
2018-01-23T05:39:51.155Z,9.40
2018-01-23T05:40:51.142Z,9.80
2018-01-23T05:41:51.140Z,9.50
2018-01-23T05:42:51.107Z,9.50
2018-01-23T05:43:51.105Z,9.40
2018-01-23T05:44:51.070Z,9.40
2018-01-23T05:45:51.053Z,8.90
2018-01-23T05:46:51.035Z,9.80
2018-01-23T05:47:51.025Z,9.90
2018-01-23T05:48:51.020Z,9.70
2018-01-23T05:49:50.990Z,9.90
2018-01-23T05:50:50.974Z,9.60
2018-01-23T05:51:50.956Z,9.80
2018-01-23T05:52:50.940Z,9.70
2018-01-23T05:53:50.950Z,9.50
2018-01-23T05:54:50.929Z,9.80
2018-01-23T05:55:50.896Z,9.60
2018-01-23T05:56:50.877Z,9.30
2018-01-23T05:57:50.858Z,9.90
2018-01-23T05:58:50.844Z,9.90
2018-01-23T05:59:50.827Z,9.70
2018-01-23T06:00:50.824Z,9.80
2018-01-23T06:01:50.792Z,10.20
2018-01-23T06:02:50.776Z,9.90
2018-01-23T06:03:50.760Z,9.90
2018-01-23T06:04:50.744Z,9.70
2018-01-23T06:05:50.740Z,10.00
2018-01-23T06:06:50.709Z,9.80
2018-01-23T06:07:50.696Z,10.40
2018-01-23T06:08:50.676Z,9.70
2018-01-23T06:09:50.674Z,10.40
2018-01-23T06:10:50.643Z,9.60
2018-01-23T06:11:50.627Z,10.00
2018-01-23T06:12:50.610Z,9.80
2018-01-23T06:13:50.609Z,10.00
2018-01-23T06:14:50.578Z,9.90
2018-01-23T06:15:50.560Z,10.50
2018-01-23T06:16:50.561Z,10.20
2018-01-23T06:17:50.527Z,9.80
2018-01-23T06:18:50.512Z,10.40
2018-01-23T06:19:50.494Z,10.40
2018-01-23T06:20:50.479Z,10.50
2018-01-23T06:21:50.476Z,10.20
2018-01-23T06:22:50.446Z,10.00
2018-01-23T06:23:50.427Z,10.30
2018-01-23T06:24:50.429Z,10.60
2018-01-23T06:25:50.398Z,10.70
2018-01-23T06:26:50.397Z,10.80
2018-01-23T06:27:50.362Z,10.90
2018-01-23T06:28:50.345Z,10.80
2018-01-23T06:29:50.329Z,10.10
2018-01-23T06:30:50.320Z,10.00
2018-01-23T06:31:50.298Z,10.40
2018-01-23T06:32:50.294Z,10.60
2018-01-23T06:33:50.277Z,10.90
2018-01-23T06:34:50.254Z,10.40
2018-01-23T06:35:50.233Z,10.70
2018-01-23T06:36:50.216Z,10.70
2018-01-23T06:37:50.199Z,10.90
2018-01-23T06:38:50.197Z,10.90
2018-01-23T06:39:50.176Z,10.90
2018-01-23T06:40:50.151Z,11.70
2018-01-23T06:41:50.133Z,11.50
2018-01-23T06:42:50.118Z,11.20
2018-01-23T06:43:50.123Z,11.20
2018-01-23T06:44:50.084Z,11.60
2018-01-23T06:45:50.073Z,11.60
2018-01-23T06:46:50.051Z,11.70
2018-01-23T06:47:50.034Z,11.00
2018-01-23T06:48:50.017Z,11.60
2018-01-23T06:49:50.019Z,11.10
2018-01-23T06:50:49.986Z,11.30
2018-01-23T06:51:49.970Z,10.90
2018-01-23T06:52:49.950Z,12.20
2018-01-23T06:53:49.954Z,11.70
2018-01-23T06:54:49.920Z,11.20
2018-01-23T06:55:49.931Z,11.70
2018-01-23T06:56:49.884Z,11.40
2018-01-23T06:57:49.870Z,11.60
2018-01-23T06:58:49.853Z,11.00
2018-01-23T06:59:49.857Z,11.70
2018-01-23T07:00:49.818Z,11.90
2018-01-23T07:01:49.802Z,11.60
2018-01-23T07:02:49.786Z,11.20
2018-01-23T07:03:49.770Z,10.90
2018-01-23T07:04:49.749Z,11.10
2018-01-23T07:05:49.754Z,11.10
2018-01-23T07:06:49.722Z,11.10
2018-01-23T07:07:49.703Z,10.90
2018-01-23T07:08:49.688Z,11.60
2018-01-23T07:09:49.671Z,10.80
2018-01-23T07:10:49.655Z,11.50
2018-01-23T07:11:49.651Z,10.50
2018-01-23T07:12:49.622Z,11.40
2018-01-23T07:13:49.604Z,10.80
2018-01-23T07:14:49.600Z,10.70
2018-01-23T07:15:49.566Z,11.10
2018-01-23T07:16:49.581Z,11.10
2018-01-23T07:17:49.538Z,10.30
2018-01-23T07:18:49.521Z,11.00
2018-01-23T07:19:49.501Z,10.70
2018-01-23T07:20:49.489Z,10.50
2018-01-23T07:21:49.469Z,10.90
2018-01-23T07:22:49.468Z,10.80
2018-01-23T07:23:49.459Z,10.50
2018-01-23T07:24:49.421Z,10.70
2018-01-23T07:25:49.405Z,11.10
2018-01-23T07:26:49.389Z,10.60
2018-01-23T07:27:49.370Z,10.50
2018-01-23T07:28:49.354Z,10.90
2018-01-23T07:29:49.353Z,10.50
2018-01-23T07:30:49.320Z,10.50
2018-01-23T07:31:49.304Z,10.70
2018-01-23T07:32:49.289Z,10.90
2018-01-23T07:33:49.272Z,10.40
2018-01-23T07:34:49.271Z,10.40
2018-01-23T07:35:49.239Z,10.60
2018-01-23T07:36:49.221Z,10.20
2018-01-23T07:37:49.228Z,9.90
2018-01-23T07:38:49.187Z,10.30
2018-01-23T07:39:49.187Z,10.40
2018-01-23T07:40:49.155Z,9.80
2018-01-23T07:41:49.141Z,10.70
2018-01-23T07:42:49.125Z,9.90
2018-01-23T07:43:49.107Z,10.00
2018-01-23T07:44:49.090Z,10.90
2018-01-23T07:45:49.087Z,10.10
2018-01-23T07:46:49.064Z,10.50
2018-01-23T07:47:49.042Z,10.80
2018-01-23T07:48:49.020Z,10.80
2018-01-23T07:49:49.022Z,11.20
2018-01-23T07:50:49.009Z,10.80
2018-01-23T07:51:48.974Z,11.50
2018-01-23T07:52:48.956Z,11.50
2018-01-23T07:53:48.942Z,10.80
2018-01-23T07:54:48.939Z,10.80
2018-01-23T07:55:48.926Z,10.00
2018-01-23T07:56:48.894Z,10.60
2018-01-23T07:57:48.876Z,10.10
2018-01-23T07:58:48.860Z,10.00
2018-01-23T07:59:48.841Z,10.40
2018-01-23T08:00:48.822Z,9.80
2018-01-23T08:01:48.825Z,10.40
2018-01-23T08:02:48.793Z,9.90
2018-01-23T08:03:48.777Z,9.90
2018-01-23T08:04:48.760Z,9.80
2018-01-23T08:05:48.742Z,9.80
2018-01-23T08:06:48.743Z,9.60
2018-01-23T08:07:48.713Z,9.90
2018-01-23T08:08:48.700Z,9.90
2018-01-23T08:09:48.675Z,9.60
2018-01-23T08:10:48.666Z,8.90
2018-01-23T08:11:48.657Z,9.30
2018-01-23T08:12:48.628Z,9.50
2018-01-23T08:13:48.608Z,9.70
2018-01-23T08:14:48.596Z,9.10
2018-01-23T08:15:48.581Z,9.80
2018-01-23T08:16:48.627Z,8.90
2018-01-23T08:17:48.550Z,8.80
2018-01-23T08:18:48.533Z,9.40
2018-01-23T08:19:48.519Z,9.00
2018-01-23T08:20:48.497Z,9.10
2018-01-23T08:21:48.494Z,8.50
2018-01-23T08:22:48.466Z,8.40
2018-01-23T08:23:48.448Z,8.60
2018-01-23T08:24:48.441Z,8.60
2018-01-23T08:25:48.434Z,8.20
2018-01-23T08:26:48.400Z,7.80
2018-01-23T08:27:48.395Z,7.80
2018-01-23T08:28:48.365Z,8.20
2018-01-23T08:29:48.346Z,8.20
2018-01-23T08:30:48.334Z,8.00
2018-01-23T08:31:48.334Z,8.00
2018-01-23T08:32:48.301Z,8.10
2018-01-23T08:33:48.282Z,8.00
2018-01-23T08:34:48.269Z,8.00
2018-01-23T08:35:48.251Z,7.30
2018-01-23T08:36:48.252Z,7.40
2018-01-23T08:37:48.218Z,8.20
2018-01-23T08:38:48.219Z,7.60
2018-01-23T08:39:48.196Z,7.10
2018-01-23T08:40:48.174Z,7.20
2018-01-23T08:41:48.167Z,7.50
2018-01-23T08:42:48.138Z,7.10
2018-01-23T08:43:48.119Z,7.30
2018-01-23T08:44:48.119Z,7.40
2018-01-23T08:45:48.083Z,7.30
2018-01-23T08:46:48.086Z,7.60
2018-01-23T08:47:48.072Z,7.20
2018-01-23T08:48:48.039Z,6.70
2018-01-23T08:49:48.023Z,6.80
2018-01-23T08:50:48.005Z,6.60
2018-01-23T08:51:47.994Z,6.30
2018-01-23T08:52:47.995Z,6.70
2018-01-23T08:53:47.958Z,6.40
2018-01-23T08:54:47.938Z,6.70
2018-01-23T08:55:47.924Z,6.50
2018-01-23T08:56:47.908Z,6.30
2018-01-23T08:57:47.892Z,6.60
2018-01-23T08:58:47.892Z,6.60
2018-01-23T08:59:47.857Z,6.30
2018-01-23T09:00:47.842Z,5.70
2018-01-23T09:01:47.826Z,6.60
2018-01-23T09:02:47.813Z,6.00
2018-01-23T09:03:47.794Z,6.20
2018-01-23T09:04:47.797Z,5.80
2018-01-23T09:05:47.762Z,6.30
2018-01-23T09:06:47.747Z,6.00
2018-01-23T09:07:47.730Z,5.90
2018-01-23T09:08:47.712Z,5.50
2018-01-23T09:09:47.699Z,5.90
2018-01-23T09:10:47.696Z,6.00
2018-01-23T09:11:47.665Z,6.10
2018-01-23T09:12:47.647Z,5.80
2018-01-23T09:13:47.632Z,5.90
2018-01-23T09:14:47.630Z,6.00
2018-01-23T09:15:47.600Z,5.60
2018-01-23T09:16:47.599Z,5.90
2018-01-23T09:17:47.566Z,5.60
2018-01-23T09:18:47.552Z,5.70
2018-01-23T09:19:47.534Z,6.10
2018-01-23T09:20:47.517Z,5.60
2018-01-23T09:21:47.504Z,5.70
2018-01-23T09:22:47.501Z,5.90
2018-01-23T09:23:47.470Z,5.70
2018-01-23T09:24:47.456Z,5.20
2018-01-23T09:25:47.452Z,5.30
2018-01-23T09:26:47.421Z,5.50
2018-01-23T09:27:47.421Z,5.70
2018-01-23T09:28:47.388Z,5.40
2018-01-23T09:29:47.373Z,5.40
2018-01-23T09:30:47.370Z,5.60
2018-01-23T09:31:47.344Z,5.60
2018-01-23T09:32:47.325Z,5.80
2018-01-23T09:33:47.350Z,5.50
2018-01-23T09:34:47.294Z,5.40
2018-01-23T09:35:47.296Z,5.60
2018-01-23T09:36:47.260Z,5.50
2018-01-23T09:37:47.247Z,5.10
2018-01-23T09:38:47.226Z,5.40
2018-01-23T09:39:47.213Z,5.30
2018-01-23T09:40:47.194Z,5.40
2018-01-23T09:41:47.197Z,5.20
2018-01-23T09:42:47.164Z,5.50
2018-01-23T09:43:47.148Z,5.50
2018-01-23T09:44:47.130Z,5.40
2018-01-23T09:45:47.114Z,5.60
2018-01-23T09:46:47.098Z,5.10
2018-01-23T09:47:47.095Z,5.60
2018-01-23T09:48:47.068Z,5.30
2018-01-23T09:49:47.052Z,5.60
2018-01-23T09:50:47.057Z,5.50
2018-01-23T09:51:47.020Z,5.20
2018-01-23T09:52:47.001Z,5.60
2018-01-23T09:53:46.987Z,5.70
2018-01-23T09:54:46.983Z,5.60
2018-01-23T09:55:46.960Z,5.40
2018-01-23T09:56:46.954Z,5.20
2018-01-23T09:57:46.938Z,5.30
2018-01-23T09:58:46.908Z,5.70
2018-01-23T09:59:46.887Z,5.60
2018-01-23T10:00:46.876Z,5.60
2018-01-23T10:01:46.883Z,5.40
2018-01-23T10:02:46.844Z,5.40
2018-01-23T10:03:46.831Z,5.40
2018-01-23T10:04:46.815Z,5.70
2018-01-23T10:05:46.798Z,5.80
2018-01-23T10:06:46.781Z,5.60
2018-01-23T10:07:46.781Z,5.30
2018-01-23T10:08:46.750Z,5.60
2018-01-23T10:09:46.733Z,5.30
2018-01-23T10:10:46.717Z,5.40
2018-01-23T10:11:46.703Z,5.30
2018-01-23T10:12:46.703Z,5.40
2018-01-23T10:13:46.674Z,4.80
2018-01-23T10:14:46.653Z,5.10
2018-01-23T10:15:46.640Z,4.90
2018-01-23T10:16:46.624Z,4.70
2018-01-23T10:17:46.611Z,5.00
2018-01-23T10:18:46.606Z,4.50
2018-01-23T10:19:46.583Z,4.60
2018-01-23T10:20:46.567Z,4.90
2018-01-23T10:21:46.548Z,4.50
2018-01-23T10:22:46.548Z,4.90
2018-01-23T10:23:46.519Z,4.50
2018-01-23T10:24:46.519Z,4.30
2018-01-23T10:25:46.484Z,5.00
2018-01-23T10:26:46.470Z,4.30
2018-01-23T10:27:46.460Z,4.30
2018-01-23T10:28:46.440Z,4.10
2018-01-23T10:29:46.440Z,4.10
2018-01-23T10:30:46.411Z,3.90
2018-01-23T10:31:46.396Z,4.20
2018-01-23T10:32:46.378Z,4.90
2018-01-23T10:33:46.366Z,4.50
2018-01-23T10:34:46.351Z,4.20
2018-01-23T10:35:46.348Z,4.20
2018-01-23T10:36:46.315Z,4.20
2018-01-23T10:37:46.306Z,4.20
2018-01-23T10:38:46.288Z,4.00
2018-01-23T10:39:46.275Z,4.30
2018-01-23T10:40:46.269Z,4.10
2018-01-23T10:41:46.244Z,4.00
2018-01-23T10:42:46.230Z,3.90
2018-01-23T10:43:46.214Z,4.00
2018-01-23T10:44:46.201Z,3.70
2018-01-23T10:45:46.201Z,3.80
2018-01-23T10:46:46.169Z,3.70
2018-01-23T10:47:46.171Z,3.80
2018-01-23T10:48:46.309Z,3.90
2018-01-23T10:49:46.125Z,3.50
2018-01-23T10:50:46.111Z,3.90
2018-01-23T10:51:46.116Z,3.50
2018-01-23T10:52:46.080Z,3.40
2018-01-23T10:53:46.079Z,3.80
2018-01-23T10:54:46.051Z,3.40
2018-01-23T10:55:46.036Z,3.40
2018-01-23T10:56:46.031Z,3.10
2018-01-23T10:57:46.022Z,3.30
2018-01-23T10:58:45.990Z,3.20
2018-01-23T10:59:45.977Z,3.30
2018-01-23T11:00:45.957Z,3.10
2018-01-23T11:01:45.941Z,3.00
2018-01-23T11:02:45.942Z,3.20
2018-01-23T11:03:45.911Z,3.50
2018-01-23T11:04:45.895Z,2.90
2018-01-23T11:05:45.884Z,3.30
2018-01-23T11:06:45.866Z,2.90
2018-01-23T11:07:45.868Z,3.00
2018-01-23T11:08:45.835Z,3.10
2018-01-23T11:09:45.822Z,3.10
2018-01-23T11:10:45.809Z,2.80
2018-01-23T11:11:45.795Z,3.00
2018-01-23T11:12:45.778Z,2.80
2018-01-23T11:13:45.797Z,3.00
2018-01-23T11:14:45.745Z,3.00
2018-01-23T11:15:45.731Z,2.90
2018-01-23T11:16:45.716Z,3.20
2018-01-23T11:17:45.702Z,3.30
2018-01-23T11:18:45.699Z,3.20
2018-01-23T11:19:45.673Z,3.20
2018-01-23T11:20:45.656Z,3.40
2018-01-23T11:21:45.641Z,3.30
2018-01-23T11:22:45.622Z,3.50
2018-01-23T11:23:45.610Z,3.30
2018-01-23T11:24:45.613Z,3.40
2018-01-23T11:25:45.578Z,3.40
2018-01-23T11:26:45.620Z,3.20
2018-01-23T11:27:45.549Z,3.20
2018-01-23T11:28:45.533Z,3.30
2018-01-23T11:29:45.521Z,3.50
2018-01-23T11:30:45.523Z,3.40
2018-01-23T11:31:45.486Z,3.50
2018-01-23T11:32:45.491Z,3.70
2018-01-23T11:33:45.460Z,3.30
2018-01-23T11:34:45.443Z,3.30
2018-01-23T11:35:45.429Z,3.10
2018-01-23T11:36:45.425Z,3.80
2018-01-23T11:37:45.399Z,3.20
2018-01-23T11:38:45.386Z,3.30
2018-01-23T11:39:45.384Z,3.30
2018-01-23T11:40:45.365Z,3.30
2018-01-23T11:41:45.336Z,3.30
2018-01-23T11:42:45.322Z,3.40
2018-01-23T11:43:45.307Z,3.30
2018-01-23T11:44:45.296Z,3.30
2018-01-23T11:46:06.286Z,3.10
2018-01-23T11:46:45.261Z,3.20
2018-01-23T11:47:45.250Z,3.20
2018-01-23T11:48:45.231Z,3.00
2018-01-23T11:49:45.216Z,3.40
2018-01-23T11:50:45.220Z,3.10
2018-01-23T11:51:45.188Z,3.40
2018-01-23T11:52:45.197Z,3.40
2018-01-23T11:53:45.156Z,3.30
2018-01-23T11:54:45.145Z,3.20
2018-01-23T11:55:45.126Z,3.30
2018-01-23T11:56:45.124Z,3.80
2018-01-23T11:57:45.132Z,3.60
2018-01-23T11:58:45.081Z,3.90
2018-01-23T11:59:45.062Z,3.40
2018-01-23T12:00:45.052Z,3.40
2018-01-23T12:01:45.052Z,3.40
2018-01-23T12:02:45.019Z,3.70
2018-01-23T12:03:45.004Z,3.80
2018-01-23T12:04:44.991Z,3.40
2018-01-23T12:05:44.975Z,3.30
2018-01-23T12:06:44.976Z,3.30
2018-01-23T12:07:44.962Z,3.40
2018-01-23T12:08:44.934Z,3.40
2018-01-23T12:09:44.920Z,3.20
2018-01-23T12:10:44.901Z,3.10
2018-01-23T12:11:44.886Z,3.40
2018-01-23T12:12:44.886Z,3.40
2018-01-23T12:13:44.859Z,3.30
2018-01-23T12:14:44.845Z,3.20
2018-01-23T12:15:44.827Z,3.60
2018-01-23T12:16:44.811Z,3.20
2018-01-23T12:17:44.796Z,3.10
2018-01-23T12:18:44.796Z,3.50
2018-01-23T12:19:44.767Z,3.10
2018-01-23T12:20:44.768Z,3.30
2018-01-23T12:21:44.735Z,3.50
2018-01-23T12:22:44.726Z,3.60
2018-01-23T12:23:44.707Z,3.20
2018-01-23T12:24:44.707Z,3.60
2018-01-23T12:25:44.691Z,3.40
2018-01-23T12:26:44.667Z,3.80
2018-01-23T12:27:44.645Z,3.80
2018-01-23T12:28:44.633Z,3.90
2018-01-23T12:29:44.614Z,3.90
2018-01-23T12:30:44.621Z,3.70
2018-01-23T12:31:44.688Z,3.70
2018-01-23T12:32:44.576Z,4.30
2018-01-23T12:33:44.562Z,4.20
2018-01-23T12:34:44.547Z,4.40
2018-01-23T12:35:44.542Z,4.10
2018-01-23T12:36:44.515Z,4.20
2018-01-23T12:37:44.499Z,4.00
2018-01-23T12:38:44.489Z,4.60
2018-01-23T12:39:44.475Z,4.80
2018-01-23T12:40:44.472Z,4.70
2018-01-23T12:41:44.442Z,4.20
2018-01-23T12:42:44.427Z,3.80
2018-01-23T12:43:44.412Z,3.30
2018-01-23T12:44:44.399Z,3.30
2018-01-23T12:45:44.385Z,3.00
2018-01-23T12:46:44.393Z,2.70
2018-01-23T12:47:44.359Z,2.70
2018-01-23T12:48:44.344Z,2.50
2018-01-23T12:49:44.326Z,3.00
2018-01-23T12:50:44.312Z,2.50
2018-01-23T12:51:44.298Z,2.70
2018-01-23T12:52:44.301Z,2.50
2018-01-23T12:53:44.269Z,2.50
2018-01-23T12:54:44.259Z,2.50
2018-01-23T12:55:44.242Z,2.60
2018-01-23T12:56:44.226Z,2.80
2018-01-23T12:57:44.228Z,2.80
2018-01-23T12:58:44.201Z,2.50
2018-01-23T12:59:44.202Z,2.60
2018-01-23T13:00:44.172Z,2.70
2018-01-23T13:01:44.159Z,2.90
2018-01-23T13:02:44.145Z,2.90
2018-01-23T13:03:44.129Z,2.90
2018-01-23T13:04:44.132Z,2.60